Terminal Aerodrome Forecast
Issued by NWS

Home | Current Version | Previous Version | Text Only | Print | Product List | Glossary On
Versions: 1 2 3 4 5 6 7 8 9 10 11 12 13 14 15 16 17 18 19
000
FTUS43 KMQT 240155 AAA
TAFIWD
TAF AMD
KIWD 240155Z 2402/2424 20007KT P6SM SCT050 OVC100
     FM240500 18011KT P6SM BKN050 WS010/19030KT
     FM240900 21008KT 5SM BR VCSH OVC025
     FM241300 24009KT P6SM BKN050
     FM241800 27012G19KT P6SM FEW110
      AMD LTD TO CLD VIS AND WIND=

USA.gov is the U.S. government's official web portal to all federal, state and local government web resources and services.